createdAt,value
2022-10-08T00:02:33.885Z,1008.41
2022-10-08T00:05:42.197Z,1008.44
2022-10-08T00:08:49.489Z,1008.39
2022-10-08T00:11:57.347Z,1008.33
2022-10-08T00:15:05.309Z,1008.34
2022-10-08T00:18:12.651Z,1008.34
2022-10-08T00:21:20.460Z,1008.35
2022-10-08T00:24:27.902Z,1008.45
2022-10-08T00:27:36.081Z,1008.50
2022-10-08T00:30:44.371Z,1008.52
2022-10-08T00:33:51.887Z,1008.55
2022-10-08T00:37:00.194Z,1008.44
2022-10-08T00:40:08.775Z,1008.46
2022-10-08T00:43:21.706Z,1008.40
2022-10-08T00:46:21.143Z,1008.40
2022-10-08T00:49:28.815Z,1008.44
2022-10-08T00:52:36.342Z,1008.44
2022-10-08T00:55:44.288Z,1008.43
2022-10-08T00:58:51.811Z,1008.41
2022-10-08T01:01:59.313Z,1008.33
2022-10-08T01:05:07.180Z,1008.28
2022-10-08T01:08:15.010Z,1008.27
2022-10-08T01:11:22.589Z,1008.24
2022-10-08T01:14:30.354Z,1008.25
2022-10-08T01:17:38.084Z,1008.17
2022-10-08T01:20:45.924Z,1008.16
2022-10-08T01:23:53.665Z,1008.18
2022-10-08T01:27:01.196Z,1008.13
2022-10-08T01:30:08.990Z,1008.11
2022-10-08T01:33:16.635Z,1008.16
2022-10-08T01:36:24.306Z,1008.23
2022-10-08T01:39:31.711Z,1008.21
2022-10-08T01:42:39.737Z,1008.21
2022-10-08T01:45:47.416Z,1008.19
2022-10-08T01:48:55.071Z,1008.19
2022-10-08T01:52:03.052Z,1008.19
2022-10-08T01:55:10.323Z,1008.13
2022-10-08T01:58:17.894Z,1008.02
2022-10-08T02:01:25.937Z,1008.03
2022-10-08T02:04:33.306Z,1008.07
2022-10-08T02:07:41.314Z,1008.04
2022-10-08T02:10:49.100Z,1008.05
2022-10-08T02:13:56.300Z,1007.91
2022-10-08T02:17:04.220Z,1007.93
2022-10-08T02:20:11.704Z,1007.94
2022-10-08T02:23:18.842Z,1008.02
2022-10-08T02:26:26.316Z,1008.01
2022-10-08T02:29:34.094Z,1008.00
2022-10-08T02:32:41.252Z,1008.03
2022-10-08T02:35:49.024Z,1008.00
2022-10-08T02:38:56.179Z,1007.98
2022-10-08T02:42:04.225Z,1007.99
2022-10-08T02:45:11.985Z,1008.06
2022-10-08T02:48:19.191Z,1008.05
2022-10-08T02:51:27.097Z,1008.04
2022-10-08T02:54:35.230Z,1008.06
2022-10-08T02:57:42.327Z,1007.99
2022-10-08T03:00:50.033Z,1007.94
2022-10-08T03:03:58.142Z,1007.91
2022-10-08T03:07:05.414Z,1007.84
2022-10-08T03:10:13.207Z,1007.95
2022-10-08T03:13:20.734Z,1007.97
2022-10-08T03:16:28.509Z,1007.91
2022-10-08T03:19:36.639Z,1007.87
2022-10-08T03:22:44.259Z,1007.87
2022-10-08T03:25:52.125Z,1007.87
2022-10-08T03:28:59.932Z,1007.91
2022-10-08T03:32:07.523Z,1007.88
2022-10-08T03:35:15.349Z,1007.96
2022-10-08T03:38:23.474Z,1007.91
2022-10-08T03:41:30.682Z,1007.89
2022-10-08T03:44:38.653Z,1007.85
2022-10-08T03:47:46.129Z,1007.79
2022-10-08T03:50:53.785Z,1007.80
2022-10-08T03:54:01.372Z,1007.83
2022-10-08T03:57:08.872Z,1007.76
2022-10-08T04:00:16.103Z,1007.72
2022-10-08T04:03:24.082Z,1007.76
2022-10-08T04:06:31.850Z,1007.79
2022-10-08T04:09:39.468Z,1007.71
2022-10-08T04:12:47.207Z,1007.66
2022-10-08T04:15:55.234Z,1007.59
2022-10-08T04:19:02.733Z,1007.60
2022-10-08T04:22:10.251Z,1007.64
2022-10-08T04:25:18.095Z,1007.70
2022-10-08T04:28:25.844Z,1007.73
2022-10-08T04:31:33.406Z,1007.70
2022-10-08T04:34:40.956Z,1007.79
2022-10-08T04:37:48.200Z,1007.76
2022-10-08T04:40:56.318Z,1007.83
2022-10-08T04:44:04.039Z,1007.90
2022-10-08T04:47:11.459Z,1007.90
2022-10-08T04:50:19.550Z,1007.82
2022-10-08T04:53:27.300Z,1007.87
2022-10-08T04:56:35.334Z,1007.91
2022-10-08T05:00:05.759Z,1007.98
2022-10-08T05:02:47.789Z,1007.88
2022-10-08T05:05:55.774Z,1008.02
2022-10-08T05:09:03.805Z,1007.98
2022-10-08T05:12:10.945Z,1008.03
2022-10-08T05:15:18.685Z,1008.01
2022-10-08T05:18:26.118Z,1008.03
2022-10-08T05:21:33.586Z,1007.98
2022-10-08T05:24:41.498Z,1008.04
2022-10-08T05:27:48.969Z,1008.01
2022-10-08T05:30:56.383Z,1008.09
2022-10-08T05:34:04.120Z,1008.15
2022-10-08T05:37:11.590Z,1008.05
2022-10-08T05:40:19.202Z,1008.11
2022-10-08T05:43:27.352Z,1008.10
2022-10-08T05:46:34.986Z,1008.13
2022-10-08T05:49:42.790Z,1008.08
2022-10-08T05:52:50.558Z,1008.07
2022-10-08T05:55:58.064Z,1008.25
2022-10-08T05:59:06.095Z,1008.30
2022-10-08T06:02:13.560Z,1008.18
2022-10-08T06:05:21.118Z,1008.26
2022-10-08T06:08:28.729Z,1008.31
2022-10-08T06:11:36.351Z,1008.25
2022-10-08T06:14:43.661Z,1008.27
2022-10-08T06:17:51.091Z,1008.29
2022-10-08T06:20:58.951Z,1008.36
2022-10-08T06:24:06.508Z,1008.35
2022-10-08T06:27:13.935Z,1008.40
2022-10-08T06:30:21.720Z,1008.44
2022-10-08T06:33:28.954Z,1008.51
2022-10-08T06:36:36.937Z,1008.51
2022-10-08T06:39:48.409Z,1008.53
2022-10-08T06:42:45.523Z,1008.69
2022-10-08T06:45:54.106Z,1008.77
2022-10-08T06:49:01.867Z,1008.73
2022-10-08T06:52:09.067Z,1008.77
2022-10-08T06:55:17.022Z,1008.70
2022-10-08T06:58:24.398Z,1008.78
2022-10-08T07:01:33.888Z,1008.92
2022-10-08T07:04:41.829Z,1008.91
2022-10-08T07:07:49.151Z,1008.88
2022-10-08T07:10:56.792Z,1008.97
2022-10-08T07:14:04.601Z,1009.03
2022-10-08T07:17:12.075Z,1009.14
2022-10-08T07:20:19.274Z,1009.12
2022-10-08T07:23:26.473Z,1009.18
2022-10-08T07:26:34.483Z,1009.13
2022-10-08T07:29:42.225Z,1008.95
2022-10-08T07:32:49.861Z,1008.91
2022-10-08T07:35:57.958Z,1009.04
2022-10-08T07:39:05.340Z,1009.11
2022-10-08T07:42:13.028Z,1009.26
2022-10-08T07:45:20.756Z,1009.08
2022-10-08T07:48:32.982Z,1009.02
2022-10-08T07:51:31.454Z,1009.09
2022-10-08T07:54:39.273Z,1009.17
2022-10-08T07:57:46.309Z,1009.24
2022-10-08T08:00:54.137Z,1009.35
2022-10-08T08:04:01.878Z,1009.43
2022-10-08T08:07:08.995Z,1009.41
2022-10-08T08:10:16.855Z,1009.46
2022-10-08T08:13:24.357Z,1009.52
2022-10-08T08:16:32.002Z,1009.56
2022-10-08T08:19:39.668Z,1009.60
2022-10-08T08:22:47.555Z,1009.71
2022-10-08T08:25:55.745Z,1009.77
2022-10-08T08:29:03.540Z,1009.81
2022-10-08T08:32:10.600Z,1009.85
2022-10-08T08:35:18.112Z,1009.89
2022-10-08T08:38:25.772Z,1009.90
2022-10-08T08:41:34.165Z,1009.97
2022-10-08T08:44:42.100Z,1010.00
2022-10-08T08:47:49.614Z,1010.05
2022-10-08T08:50:57.587Z,1010.07
2022-10-08T08:54:06.245Z,1010.09
2022-10-08T08:57:13.758Z,1010.20
2022-10-08T09:00:21.738Z,1010.24
2022-10-08T09:03:29.096Z,1010.23
2022-10-08T09:06:36.687Z,1010.27
2022-10-08T09:09:44.147Z,1010.26
2022-10-08T09:12:51.200Z,1010.33
2022-10-08T09:15:59.122Z,1010.37
2022-10-08T09:19:07.102Z,1010.39
2022-10-08T09:22:14.200Z,1010.41
2022-10-08T09:25:22.094Z,1010.49
2022-10-08T09:28:29.749Z,1010.49
2022-10-08T09:31:37.192Z,1010.60
2022-10-08T09:34:45.166Z,1010.59
2022-10-08T09:37:52.206Z,1010.58
2022-10-08T09:40:59.974Z,1010.59
2022-10-08T09:44:07.665Z,1010.60
2022-10-08T09:47:14.699Z,1010.59
2022-10-08T09:50:22.538Z,1010.56
2022-10-08T09:53:30.063Z,1010.68
2022-10-08T09:56:37.650Z,1010.70
2022-10-08T09:59:44.723Z,1010.68
2022-10-08T10:02:52.400Z,1010.56
2022-10-08T10:06:00.052Z,1010.65
2022-10-08T10:09:07.414Z,1010.73
2022-10-08T10:12:15.026Z,1010.78
2022-10-08T10:15:22.547Z,1010.76
2022-10-08T10:18:30.048Z,1010.82
2022-10-08T10:21:37.858Z,1010.77
2022-10-08T10:24:45.247Z,1010.75
2022-10-08T10:27:52.570Z,1010.79
2022-10-08T10:31:00.363Z,1010.69
2022-10-08T10:34:07.404Z,1010.69
2022-10-08T10:37:14.992Z,1010.81
2022-10-08T10:40:22.358Z,1010.73
2022-10-08T10:43:29.444Z,1010.69
2022-10-08T10:46:37.375Z,1010.72
2022-10-08T10:49:44.733Z,1010.67
2022-10-08T10:52:52.857Z,1010.65
2022-10-08T10:56:00.878Z,1010.71
2022-10-08T10:59:08.469Z,1010.61
2022-10-08T11:02:16.316Z,1010.60
2022-10-08T11:05:24.120Z,1010.61
2022-10-08T11:08:31.110Z,1010.55
2022-10-08T11:11:38.902Z,1010.62
2022-10-08T11:14:46.730Z,1010.63
2022-10-08T11:17:54.080Z,1010.54
2022-10-08T11:21:01.556Z,1010.52
2022-10-08T11:24:08.885Z,1010.42
2022-10-08T11:27:17.016Z,1010.43
2022-10-08T11:30:24.640Z,1010.48
2022-10-08T11:33:32.059Z,1010.39
2022-10-08T11:36:39.329Z,1010.45
2022-10-08T11:39:47.240Z,1010.52
2022-10-08T11:42:55.129Z,1010.41
2022-10-08T11:46:02.301Z,1010.39
2022-10-08T11:49:09.720Z,1010.40
2022-10-08T11:52:17.283Z,1010.45
2022-10-08T11:55:24.554Z,1010.38
2022-10-08T11:58:32.107Z,1010.24
2022-10-08T12:01:39.616Z,1010.40
2022-10-08T12:04:47.118Z,1010.36
2022-10-08T12:07:54.567Z,1010.28
2022-10-08T12:11:02.088Z,1010.27
2022-10-08T12:14:09.450Z,1010.28
2022-10-08T12:17:17.052Z,1010.27
2022-10-08T12:20:24.524Z,1010.26
2022-10-08T12:23:32.064Z,1010.18
2022-10-08T12:26:39.787Z,1010.28
2022-10-08T12:29:47.175Z,1010.28
2022-10-08T12:32:54.174Z,1010.30
2022-10-08T12:36:01.816Z,1010.31
2022-10-08T12:39:09.225Z,1010.34
2022-10-08T12:42:16.933Z,1010.40
2022-10-08T12:45:24.590Z,1010.50
2022-10-08T12:48:31.671Z,1010.44
2022-10-08T12:51:39.613Z,1010.65
2022-10-08T12:54:47.307Z,1010.85
2022-10-08T12:57:54.550Z,1011.09
2022-10-08T13:01:02.220Z,1011.26
2022-10-08T13:04:09.754Z,1011.41
2022-10-08T13:07:17.476Z,1011.36
2022-10-08T13:10:26.180Z,1011.42
2022-10-08T13:13:33.586Z,1011.54
2022-10-08T13:16:41.080Z,1011.62
2022-10-08T13:19:49.055Z,1011.61
2022-10-08T13:22:56.577Z,1011.70
2022-10-08T13:26:04.161Z,1011.66
2022-10-08T13:29:11.649Z,1011.68
2022-10-08T13:32:19.369Z,1011.72
2022-10-08T13:35:27.183Z,1011.81
2022-10-08T13:38:34.713Z,1011.63
2022-10-08T13:41:42.693Z,1011.57
2022-10-08T13:44:50.225Z,1011.61
2022-10-08T13:47:57.716Z,1011.50
2022-10-08T13:51:05.605Z,1011.53
2022-10-08T13:54:12.917Z,1011.60
2022-10-08T13:57:20.841Z,1011.68
2022-10-08T14:00:28.745Z,1011.54
2022-10-08T14:03:35.994Z,1011.58
2022-10-08T14:06:43.681Z,1011.55
2022-10-08T14:09:51.670Z,1011.51
2022-10-08T14:12:58.762Z,1011.51
2022-10-08T14:16:06.725Z,1011.57
2022-10-08T14:19:14.325Z,1011.75
2022-10-08T14:22:21.764Z,1011.71
2022-10-08T14:25:29.552Z,1011.72
2022-10-08T14:28:37.073Z,1011.71
2022-10-08T14:31:44.579Z,1011.70
2022-10-08T14:34:52.398Z,1011.71
2022-10-08T14:37:59.577Z,1011.80
2022-10-08T14:41:07.039Z,1011.82
2022-10-08T14:44:14.488Z,1011.87
2022-10-08T14:47:22.374Z,1011.82
2022-10-08T14:50:29.842Z,1011.92
2022-10-08T14:53:36.943Z,1012.00
2022-10-08T14:56:44.822Z,1011.97
2022-10-08T14:59:52.252Z,1011.90
2022-10-08T15:02:59.871Z,1011.85
2022-10-08T15:06:07.637Z,1011.94
2022-10-08T15:09:14.956Z,1011.94
2022-10-08T15:12:22.049Z,1011.94
2022-10-08T15:15:30.137Z,1011.99
2022-10-08T15:18:37.199Z,1012.01
2022-10-08T15:21:45.050Z,1012.16
2022-10-08T15:24:52.969Z,1012.18
2022-10-08T15:28:00.056Z,1012.16
2022-10-08T15:31:07.568Z,1012.24
2022-10-08T15:34:15.562Z,1012.21
2022-10-08T15:37:22.597Z,1012.20
2022-10-08T15:40:29.957Z,1012.27
2022-10-08T15:43:39.492Z,1012.25
2022-10-08T15:46:46.932Z,1012.28
2022-10-08T15:49:54.755Z,1012.31
2022-10-08T15:53:02.316Z,1012.40
2022-10-08T15:56:09.767Z,1012.44
2022-10-08T15:59:17.598Z,1012.45
2022-10-08T16:02:24.772Z,1012.56
2022-10-08T16:05:32.519Z,1012.66
2022-10-08T16:08:39.842Z,1012.76
2022-10-08T16:11:47.534Z,1012.79
2022-10-08T16:14:55.326Z,1012.83
2022-10-08T16:18:02.751Z,1012.96
2022-10-08T16:21:10.724Z,1012.98
2022-10-08T16:24:18.124Z,1013.03
2022-10-08T16:27:25.676Z,1013.09
2022-10-08T16:30:33.525Z,1013.18
2022-10-08T16:33:40.597Z,1013.10
2022-10-08T16:36:48.511Z,1013.16
2022-10-08T16:39:56.458Z,1013.26
2022-10-08T16:43:03.701Z,1013.29
2022-10-08T16:46:11.969Z,1013.32
2022-10-08T16:49:24.488Z,1013.36
2022-10-08T16:52:21.724Z,1013.49
2022-10-08T16:55:30.230Z,1013.54
2022-10-08T16:58:38.633Z,1013.53
2022-10-08T17:01:46.603Z,1013.56
2022-10-08T17:04:54.661Z,1013.56
2022-10-08T17:08:02.254Z,1013.59
2022-10-08T17:11:10.100Z,1013.71
2022-10-08T17:14:18.257Z,1013.78
2022-10-08T17:17:25.726Z,1013.83
2022-10-08T17:20:33.698Z,1013.90
2022-10-08T17:23:41.449Z,1013.96
2022-10-08T17:26:49.406Z,1013.97
2022-10-08T17:29:57.259Z,1014.08
2022-10-08T17:33:04.823Z,1014.11
2022-10-08T17:36:13.278Z,1014.17
2022-10-08T17:39:21.002Z,1014.22
2022-10-08T17:42:28.935Z,1014.29
2022-10-08T17:45:37.495Z,1014.33
2022-10-08T17:48:45.220Z,1014.40
2022-10-08T17:51:52.475Z,1014.47
2022-10-08T17:55:00.656Z,1014.52
2022-10-08T17:58:07.896Z,1014.57
2022-10-08T18:01:15.645Z,1014.58
2022-10-08T18:04:23.837Z,1014.57
2022-10-08T18:07:31.838Z,1014.69
2022-10-08T18:10:40.209Z,1014.77
2022-10-08T18:13:48.725Z,1014.86
2022-10-08T18:16:56.130Z,1014.86
2022-10-08T18:20:04.231Z,1014.87
2022-10-08T18:23:12.002Z,1014.91
2022-10-08T18:26:19.411Z,1014.91
2022-10-08T18:29:27.101Z,1014.99
2022-10-08T18:32:34.293Z,1015.06
2022-10-08T18:35:42.386Z,1015.10
2022-10-08T18:38:50.265Z,1015.12
2022-10-08T18:41:57.488Z,1015.17
2022-10-08T18:45:05.323Z,1015.14
2022-10-08T18:48:13.042Z,1015.15
2022-10-08T18:51:20.375Z,1015.19
2022-10-08T18:54:28.530Z,1015.26
2022-10-08T18:57:36.053Z,1015.30
2022-10-08T19:00:43.579Z,1015.37
2022-10-08T19:03:51.478Z,1015.42
2022-10-08T19:06:59.066Z,1015.44
2022-10-08T19:10:06.761Z,1015.44
2022-10-08T19:13:14.480Z,1015.50
2022-10-08T19:16:22.313Z,1015.45
2022-10-08T19:19:29.863Z,1015.48
2022-10-08T19:22:37.404Z,1015.49
2022-10-08T19:25:45.522Z,1015.55
2022-10-08T19:28:53.290Z,1015.57
2022-10-08T19:32:00.743Z,1015.67
2022-10-08T19:35:08.534Z,1015.66
2022-10-08T19:38:16.136Z,1015.71
2022-10-08T19:41:24.307Z,1015.72
2022-10-08T19:44:32.064Z,1015.79
2022-10-08T19:47:39.722Z,1015.84
2022-10-08T19:50:47.325Z,1015.85
2022-10-08T19:53:55.398Z,1015.94
2022-10-08T19:57:02.653Z,1015.97
2022-10-08T20:00:10.836Z,1016.06
2022-10-08T20:03:18.731Z,1016.05
2022-10-08T20:06:26.169Z,1016.12
2022-10-08T20:09:34.126Z,1016.06
2022-10-08T20:12:42.052Z,1016.18
2022-10-08T20:15:51.561Z,1016.16
2022-10-08T20:18:59.639Z,1016.21
2022-10-08T20:22:11.546Z,1016.28
2022-10-08T20:25:08.412Z,1016.29
2022-10-08T20:28:16.381Z,1016.28
2022-10-08T20:31:25.322Z,1016.24
2022-10-08T20:34:32.997Z,1016.29
2022-10-08T20:37:41.144Z,1016.26
2022-10-08T20:40:48.629Z,1016.27
2022-10-08T20:43:56.221Z,1016.30
2022-10-08T20:47:04.281Z,1016.41
2022-10-08T20:50:11.591Z,1016.42
2022-10-08T20:53:19.491Z,1016.52
2022-10-08T20:56:27.208Z,1016.44
2022-10-08T20:59:35.070Z,1016.46
2022-10-08T21:02:42.633Z,1016.49
2022-10-08T21:05:51.053Z,1016.49
2022-10-08T21:08:59.492Z,1016.50
2022-10-08T21:12:08.027Z,1016.53
2022-10-08T21:15:15.877Z,1016.53
2022-10-08T21:18:23.903Z,1016.62
2022-10-08T21:21:31.245Z,1016.67
2022-10-08T21:24:38.899Z,1016.61
2022-10-08T21:27:46.956Z,1016.75
2022-10-08T21:30:54.136Z,1016.76
2022-10-08T21:34:02.077Z,1016.83
2022-10-08T21:37:13.715Z,1016.77
2022-10-08T21:40:10.377Z,1016.82
2022-10-08T21:43:18.386Z,1016.85
2022-10-08T21:46:26.141Z,1016.89
2022-10-08T21:49:33.738Z,1016.89
2022-10-08T21:52:41.811Z,1016.93
2022-10-08T21:55:49.378Z,1016.87
2022-10-08T21:58:56.971Z,1016.95
2022-10-08T22:02:04.680Z,1016.88
2022-10-08T22:05:12.278Z,1016.88
2022-10-08T22:08:19.791Z,1016.98
2022-10-08T22:11:27.686Z,1017.08
2022-10-08T22:14:35.286Z,1017.08
2022-10-08T22:17:42.913Z,1017.13
2022-10-08T22:20:50.875Z,1017.12
2022-10-08T22:23:59.107Z,1017.13
2022-10-08T22:27:06.880Z,1017.23
2022-10-08T22:30:14.596Z,1017.19
2022-10-08T22:33:22.326Z,1017.22
2022-10-08T22:36:29.977Z,1017.21
2022-10-08T22:39:37.749Z,1017.25
2022-10-08T22:42:45.642Z,1017.27
2022-10-08T22:45:53.268Z,1017.29
2022-10-08T22:49:01.743Z,1017.24
2022-10-08T22:52:09.639Z,1017.18
2022-10-08T22:55:16.960Z,1017.21
2022-10-08T22:58:25.084Z,1017.17
2022-10-08T23:01:32.846Z,1017.19
2022-10-08T23:04:40.203Z,1017.21
2022-10-08T23:07:48.230Z,1017.22
2022-10-08T23:10:55.476Z,1017.30
2022-10-08T23:14:03.743Z,1017.30
2022-10-08T23:17:12.131Z,1017.31
2022-10-08T23:20:19.486Z,1017.34
2022-10-08T23:23:27.624Z,1017.34
2022-10-08T23:26:35.333Z,1017.38
2022-10-08T23:29:43.025Z,1017.39
2022-10-08T23:32:51.439Z,1017.41
2022-10-08T23:35:59.118Z,1017.46
2022-10-08T23:39:06.864Z,1017.51
2022-10-08T23:42:14.373Z,1017.51
2022-10-08T23:45:22.098Z,1017.52
2022-10-08T23:48:29.508Z,1017.51
2022-10-08T23:51:37.349Z,1017.50
2022-10-08T23:54:44.679Z,1017.48
2022-10-08T23:57:52.380Z,1017.54
